sensor_id;sensor_type;location;lat;lon;timestamp;P1;durP1;ratioP1;P2;durP2;ratioP2
72676;SDS011;60755;51.374;10.662;2023-07-22T00:01:45;16.37;;;12.93;;
72676;SDS011;60755;51.374;10.662;2023-07-22T00:04:12;14.43;;;12.93;;
72676;SDS011;60755;51.374;10.662;2023-07-22T00:06:41;14.47;;;12.97;;
72676;SDS011;60755;51.374;10.662;2023-07-22T00:09:08;14.43;;;13.03;;
72676;SDS011;60755;51.374;10.662;2023-07-22T00:11:36;14.50;;;13.20;;
72676;SDS011;60755;51.374;10.662;2023-07-22T00:14:03;14.63;;;13.27;;
72676;SDS011;60755;51.374;10.662;2023-07-22T00:16:31;15.13;;;13.60;;
72676;SDS011;60755;51.374;10.662;2023-07-22T00:18:59;14.50;;;12.97;;
72676;SDS011;60755;51.374;10.662;2023-07-22T00:21:26;13.60;;;12.30;;
72676;SDS011;60755;51.374;10.662;2023-07-22T00:23:56;14.23;;;12.67;;
72676;SDS011;60755;51.374;10.662;2023-07-22T00:26:23;13.33;;;12.03;;
72676;SDS011;60755;51.374;10.662;2023-07-22T00:28:50;12.73;;;11.43;;
72676;SDS011;60755;51.374;10.662;2023-07-22T00:31:18;13.53;;;12.23;;
72676;SDS011;60755;51.374;10.662;2023-07-22T00:33:45;12.67;;;11.57;;
72676;SDS011;60755;51.374;10.662;2023-07-22T00:36:12;12.53;;;11.40;;
72676;SDS011;60755;51.374;10.662;2023-07-22T00:38:40;13.90;;;11.32;;
72676;SDS011;60755;51.374;10.662;2023-07-22T00:41:08;11.55;;;10.45;;
72676;SDS011;60755;51.374;10.662;2023-07-22T00:43:37;12.82;;;11.52;;
72676;SDS011;60755;51.374;10.662;2023-07-22T00:46:04;12.85;;;11.55;;
72676;SDS011;60755;51.374;10.662;2023-07-22T00:48:31;11.47;;;10.37;;
72676;SDS011;60755;51.374;10.662;2023-07-22T00:50:59;12.93;;;11.73;;
72676;SDS011;60755;51.374;10.662;2023-07-22T00:53:26;13.50;;;11.70;;
72676;SDS011;60755;51.374;10.662;2023-07-22T00:55:54;11.70;;;10.50;;
72676;SDS011;60755;51.374;10.662;2023-07-22T00:58:22;13.60;;;11.17;;
72676;SDS011;60755;51.374;10.662;2023-07-22T01:00:50;12.00;;;10.80;;
72676;SDS011;60755;51.374;10.662;2023-07-22T01:03:18;11.70;;;10.60;;
72676;SDS011;60755;51.374;10.662;2023-07-22T01:05:45;13.87;;;10.23;;
72676;SDS011;60755;51.374;10.662;2023-07-22T01:08:14;12.07;;;10.97;;
72676;SDS011;60755;51.374;10.662;2023-07-22T01:10:41;11.90;;;10.67;;
72676;SDS011;60755;51.374;10.662;2023-07-22T01:13:09;13.50;;;10.87;;
72676;SDS011;60755;51.374;10.662;2023-07-22T01:15:37;12.73;;;11.20;;
72676;SDS011;60755;51.374;10.662;2023-07-22T01:18:05;11.70;;;10.40;;
72676;SDS011;60755;51.374;10.662;2023-07-22T01:20:33;12.33;;;10.67;;
72676;SDS011;60755;51.374;10.662;2023-07-22T01:23:03;12.60;;;10.90;;
72676;SDS011;60755;51.374;10.662;2023-07-22T01:25:32;11.80;;;9.73;;
72676;SDS011;60755;51.374;10.662;2023-07-22T01:28:00;12.10;;;10.70;;
72676;SDS011;60755;51.374;10.662;2023-07-22T01:30:27;14.00;;;11.33;;
72676;SDS011;60755;51.374;10.662;2023-07-22T01:32:54;11.47;;;10.27;;
72676;SDS011;60755;51.374;10.662;2023-07-22T01:35:22;13.77;;;11.00;;
72676;SDS011;60755;51.374;10.662;2023-07-22T01:37:49;13.07;;;10.43;;
72676;SDS011;60755;51.374;10.662;2023-07-22T01:40:18;13.63;;;11.90;;
72676;SDS011;60755;51.374;10.662;2023-07-22T01:42:46;12.53;;;11.13;;
72676;SDS011;60755;51.374;10.662;2023-07-22T01:45:13;13.97;;;11.10;;
72676;SDS011;60755;51.374;10.662;2023-07-22T01:47:41;12.20;;;10.47;;
72676;SDS011;60755;51.374;10.662;2023-07-22T01:50:08;11.93;;;10.53;;
72676;SDS011;60755;51.374;10.662;2023-07-22T01:52:36;13.50;;;11.07;;
72676;SDS011;60755;51.374;10.662;2023-07-22T01:55:04;14.00;;;10.83;;
72676;SDS011;60755;51.374;10.662;2023-07-22T01:57:33;16.30;;;11.77;;
72676;SDS011;60755;51.374;10.662;2023-07-22T02:00:00;13.63;;;11.07;;
72676;SDS011;60755;51.374;10.662;2023-07-22T02:02:38;13.40;;;10.87;;
72676;SDS011;60755;51.374;10.662;2023-07-22T02:05:06;13.40;;;10.87;;
72676;SDS011;60755;51.374;10.662;2023-07-22T02:07:33;13.53;;;10.67;;
72676;SDS011;60755;51.374;10.662;2023-07-22T02:10:01;11.87;;;10.57;;
72676;SDS011;60755;51.374;10.662;2023-07-22T02:12:29;12.60;;;9.80;;
72676;SDS011;60755;51.374;10.662;2023-07-22T02:14:58;15.67;;;10.90;;
72676;SDS011;60755;51.374;10.662;2023-07-22T02:17:25;14.50;;;10.53;;
72676;SDS011;60755;51.374;10.662;2023-07-22T02:19:53;16.67;;;10.63;;
72676;SDS011;60755;51.374;10.662;2023-07-22T02:22:20;12.50;;;10.07;;
72676;SDS011;60755;51.374;10.662;2023-07-22T02:24:47;14.03;;;11.10;;
72676;SDS011;60755;51.374;10.662;2023-07-22T02:27:15;13.97;;;11.13;;
72676;SDS011;60755;51.374;10.662;2023-07-22T02:29:42;14.20;;;10.73;;
72676;SDS011;60755;51.374;10.662;2023-07-22T02:32:11;14.20;;;10.33;;
72676;SDS011;60755;51.374;10.662;2023-07-22T02:34:38;14.13;;;9.93;;
72676;SDS011;60755;51.374;10.662;2023-07-22T02:37:05;12.20;;;9.80;;
72676;SDS011;60755;51.374;10.662;2023-07-22T02:39:32;14.50;;;10.10;;
72676;SDS011;60755;51.374;10.662;2023-07-22T02:42:00;13.47;;;10.70;;
72676;SDS011;60755;51.374;10.662;2023-07-22T02:44:27;18.77;;;10.70;;
72676;SDS011;60755;51.374;10.662;2023-07-22T02:46:54;11.90;;;9.87;;
72676;SDS011;60755;51.374;10.662;2023-07-22T02:49:23;14.73;;;9.87;;
72676;SDS011;60755;51.374;10.662;2023-07-22T02:51:50;16.37;;;10.97;;
72676;SDS011;60755;51.374;10.662;2023-07-22T02:54:18;14.00;;;10.37;;
72676;SDS011;60755;51.374;10.662;2023-07-22T02:56:45;18.13;;;10.33;;
72676;SDS011;60755;51.374;10.662;2023-07-22T02:59:12;15.00;;;10.27;;
72676;SDS011;60755;51.374;10.662;2023-07-22T03:01:39;16.70;;;9.90;;
72676;SDS011;60755;51.374;10.662;2023-07-22T03:04:07;13.53;;;10.27;;
72676;SDS011;60755;51.374;10.662;2023-07-22T03:06:36;13.63;;;10.37;;
72676;SDS011;60755;51.374;10.662;2023-07-22T03:09:03;15.27;;;10.57;;
72676;SDS011;60755;51.374;10.662;2023-07-22T03:11:32;11.77;;;9.90;;
72676;SDS011;60755;51.374;10.662;2023-07-22T03:14:00;14.73;;;10.20;;
72676;SDS011;60755;51.374;10.662;2023-07-22T03:16:28;15.53;;;11.40;;
72676;SDS011;60755;51.374;10.662;2023-07-22T03:18:57;12.27;;;10.20;;
72676;SDS011;60755;51.374;10.662;2023-07-22T03:21:24;19.17;;;11.13;;
72676;SDS011;60755;51.374;10.662;2023-07-22T03:23:53;18.17;;;11.63;;
72676;SDS011;60755;51.374;10.662;2023-07-22T03:26:26;17.03;;;10.87;;
72676;SDS011;60755;51.374;10.662;2023-07-22T03:28:53;15.50;;;10.60;;
72676;SDS011;60755;51.374;10.662;2023-07-22T03:31:20;14.30;;;10.83;;
72676;SDS011;60755;51.374;10.662;2023-07-22T03:33:48;17.60;;;11.10;;
72676;SDS011;60755;51.374;10.662;2023-07-22T03:36:15;14.30;;;10.60;;
72676;SDS011;60755;51.374;10.662;2023-07-22T03:38:42;15.10;;;10.17;;
72676;SDS011;60755;51.374;10.662;2023-07-22T03:41:11;12.33;;;9.37;;
72676;SDS011;60755;51.374;10.662;2023-07-22T03:43:38;15.20;;;10.30;;
72676;SDS011;60755;51.374;10.662;2023-07-22T03:46:05;13.40;;;10.30;;
72676;SDS011;60755;51.374;10.662;2023-07-22T03:48:33;13.17;;;9.97;;
72676;SDS011;60755;51.374;10.662;2023-07-22T03:51:00;12.77;;;9.50;;
72676;SDS011;60755;51.374;10.662;2023-07-22T03:53:27;11.83;;;9.03;;
72676;SDS011;60755;51.374;10.662;2023-07-22T03:55:55;9.50;;;8.23;;
72676;SDS011;60755;51.374;10.662;2023-07-22T03:58:23;11.23;;;9.00;;
72676;SDS011;60755;51.374;10.662;2023-07-22T04:00:50;11.87;;;8.80;;
72676;SDS011;60755;51.374;10.662;2023-07-22T04:03:18;10.50;;;8.13;;
72676;SDS011;60755;51.374;10.662;2023-07-22T04:05:52;9.10;;;7.77;;
72676;SDS011;60755;51.374;10.662;2023-07-22T04:08:20;8.73;;;7.67;;
72676;SDS011;60755;51.374;10.662;2023-07-22T04:10:51;8.40;;;7.47;;
72676;SDS011;60755;51.374;10.662;2023-07-22T04:13:18;7.95;;;7.15;;
72676;SDS011;60755;51.374;10.662;2023-07-22T04:15:47;8.75;;;7.20;;
72676;SDS011;60755;51.374;10.662;2023-07-22T04:18:15;10.80;;;7.65;;
72676;SDS011;60755;51.374;10.662;2023-07-22T04:20:42;8.40;;;7.25;;
72676;SDS011;60755;51.374;10.662;2023-07-22T04:23:10;8.18;;;6.88;;
72676;SDS011;60755;51.374;10.662;2023-07-22T04:25:38;7.82;;;7.03;;
72676;SDS011;60755;51.374;10.662;2023-07-22T04:28:06;10.15;;;7.18;;
72676;SDS011;60755;51.374;10.662;2023-07-22T04:30:34;10.50;;;6.70;;
72676;SDS011;60755;51.374;10.662;2023-07-22T04:33:03;7.88;;;7.07;;
72676;SDS011;60755;51.374;10.662;2023-07-22T04:35:31;8.90;;;7.00;;
72676;SDS011;60755;51.374;10.662;2023-07-22T04:37:59;8.50;;;7.55;;
72676;SDS011;60755;51.374;10.662;2023-07-22T04:40:26;10.68;;;7.22;;
72676;SDS011;60755;51.374;10.662;2023-07-22T04:42:53;8.75;;;7.38;;
72676;SDS011;60755;51.374;10.662;2023-07-22T04:45:20;7.15;;;6.55;;
72676;SDS011;60755;51.374;10.662;2023-07-22T04:47:49;7.72;;;7.03;;
72676;SDS011;60755;51.374;10.662;2023-07-22T04:50:18;7.93;;;6.35;;
72676;SDS011;60755;51.374;10.662;2023-07-22T04:52:46;8.60;;;7.10;;
72676;SDS011;60755;51.374;10.662;2023-07-22T04:55:14;8.82;;;7.07;;
72676;SDS011;60755;51.374;10.662;2023-07-22T04:57:41;7.57;;;6.32;;
72676;SDS011;60755;51.374;10.662;2023-07-22T05:00:11;7.28;;;6.57;;
72676;SDS011;60755;51.374;10.662;2023-07-22T05:02:40;7.78;;;6.30;;
72676;SDS011;60755;51.374;10.662;2023-07-22T05:05:08;8.40;;;6.50;;
72676;SDS011;60755;51.374;10.662;2023-07-22T05:07:37;7.68;;;6.95;;
72676;SDS011;60755;51.374;10.662;2023-07-22T05:10:04;7.05;;;6.40;;
72676;SDS011;60755;51.374;10.662;2023-07-22T05:12:33;7.30;;;6.22;;
72676;SDS011;60755;51.374;10.662;2023-07-22T05:15:00;7.93;;;6.45;;
72676;SDS011;60755;51.374;10.662;2023-07-22T05:17:28;10.43;;;6.38;;
72676;SDS011;60755;51.374;10.662;2023-07-22T05:19:57;7.35;;;6.13;;
72676;SDS011;60755;51.374;10.662;2023-07-22T05:22:24;7.10;;;6.40;;
72676;SDS011;60755;51.374;10.662;2023-07-22T05:24:53;7.63;;;6.32;;
72676;SDS011;60755;51.374;10.662;2023-07-22T05:27:21;7.97;;;6.75;;
72676;SDS011;60755;51.374;10.662;2023-07-22T05:29:48;7.45;;;6.00;;
72676;SDS011;60755;51.374;10.662;2023-07-22T05:32:16;6.82;;;6.10;;
72676;SDS011;60755;51.374;10.662;2023-07-22T05:34:43;10.60;;;6.70;;
72676;SDS011;60755;51.374;10.662;2023-07-22T05:37:10;9.18;;;6.13;;
72676;SDS011;60755;51.374;10.662;2023-07-22T05:39:38;7.75;;;6.30;;
72676;SDS011;60755;51.374;10.662;2023-07-22T05:42:07;7.18;;;6.20;;
72676;SDS011;60755;51.374;10.662;2023-07-22T05:44:34;9.00;;;7.00;;
72676;SDS011;60755;51.374;10.662;2023-07-22T05:47:01;5.95;;;5.45;;
72676;SDS011;60755;51.374;10.662;2023-07-22T05:49:28;7.13;;;6.32;;
72676;SDS011;60755;51.374;10.662;2023-07-22T05:51:55;8.93;;;6.30;;
72676;SDS011;60755;51.374;10.662;2023-07-22T05:54:23;6.28;;;5.47;;
72676;SDS011;60755;51.374;10.662;2023-07-22T05:56:50;6.28;;;5.60;;
72676;SDS011;60755;51.374;10.662;2023-07-22T05:59:19;6.80;;;5.72;;
72676;SDS011;60755;51.374;10.662;2023-07-22T06:01:46;6.63;;;5.35;;
72676;SDS011;60755;51.374;10.662;2023-07-22T06:04:14;9.73;;;5.68;;
72676;SDS011;60755;51.374;10.662;2023-07-22T06:06:41;5.72;;;5.18;;
72676;SDS011;60755;51.374;10.662;2023-07-22T06:09:08;6.55;;;5.20;;
72676;SDS011;60755;51.374;10.662;2023-07-22T06:11:35;5.60;;;5.10;;
72676;SDS011;60755;51.374;10.662;2023-07-22T06:14:02;6.53;;;5.38;;
72676;SDS011;60755;51.374;10.662;2023-07-22T06:16:31;6.65;;;4.63;;
72676;SDS011;60755;51.374;10.662;2023-07-22T06:18:58;4.88;;;4.38;;
72676;SDS011;60755;51.374;10.662;2023-07-22T06:21:25;5.63;;;3.90;;
72676;SDS011;60755;51.374;10.662;2023-07-22T06:23:53;4.57;;;3.75;;
72676;SDS011;60755;51.374;10.662;2023-07-22T06:26:20;4.85;;;3.85;;
72676;SDS011;60755;51.374;10.662;2023-07-22T06:28:47;4.43;;;4.10;;
72676;SDS011;60755;51.374;10.662;2023-07-22T06:31:14;4.93;;;4.00;;
72676;SDS011;60755;51.374;10.662;2023-07-22T06:33:45;4.45;;;4.05;;
72676;SDS011;60755;51.374;10.662;2023-07-22T06:36:12;4.15;;;3.95;;
72676;SDS011;60755;51.374;10.662;2023-07-22T06:38:39;5.63;;;4.35;;
72676;SDS011;60755;51.374;10.662;2023-07-22T06:41:07;4.90;;;4.45;;
72676;SDS011;60755;51.374;10.662;2023-07-22T06:43:34;4.70;;;4.30;;
72676;SDS011;60755;51.374;10.662;2023-07-22T06:46:01;4.95;;;4.32;;
72676;SDS011;60755;51.374;10.662;2023-07-22T06:48:29;4.90;;;4.43;;
72676;SDS011;60755;51.374;10.662;2023-07-22T06:50:57;5.00;;;4.60;;
72676;SDS011;60755;51.374;10.662;2023-07-22T06:53:25;4.55;;;4.15;;
72676;SDS011;60755;51.374;10.662;2023-07-22T06:55:52;4.82;;;4.43;;
72676;SDS011;60755;51.374;10.662;2023-07-22T06:58:20;4.75;;;4.35;;
72676;SDS011;60755;51.374;10.662;2023-07-22T07:00:48;4.60;;;4.20;;
72676;SDS011;60755;51.374;10.662;2023-07-22T07:03:19;5.28;;;4.40;;
72676;SDS011;60755;51.374;10.662;2023-07-22T07:05:51;5.85;;;4.45;;
72676;SDS011;60755;51.374;10.662;2023-07-22T07:08:20;4.47;;;3.88;;
72676;SDS011;60755;51.374;10.662;2023-07-22T07:10:48;4.68;;;4.28;;
72676;SDS011;60755;51.374;10.662;2023-07-22T07:13:15;4.38;;;4.00;;
72676;SDS011;60755;51.374;10.662;2023-07-22T07:15:45;4.55;;;4.25;;
72676;SDS011;60755;51.374;10.662;2023-07-22T07:18:14;4.65;;;4.25;;
72676;SDS011;60755;51.374;10.662;2023-07-22T07:20:41;4.60;;;4.22;;
72676;SDS011;60755;51.374;10.662;2023-07-22T07:23:09;7.80;;;6.55;;
72676;SDS011;60755;51.374;10.662;2023-07-22T07:25:37;4.65;;;4.35;;
72676;SDS011;60755;51.374;10.662;2023-07-22T07:28:05;4.30;;;3.90;;
72676;SDS011;60755;51.374;10.662;2023-07-22T07:30:32;4.03;;;3.83;;
72676;SDS011;60755;51.374;10.662;2023-07-22T07:32:59;4.20;;;3.95;;
72676;SDS011;60755;51.374;10.662;2023-07-22T07:35:26;4.88;;;4.50;;
72676;SDS011;60755;51.374;10.662;2023-07-22T07:37:53;4.20;;;3.90;;
72676;SDS011;60755;51.374;10.662;2023-07-22T07:40:20;4.95;;;4.47;;
72676;SDS011;60755;51.374;10.662;2023-07-22T07:42:48;5.00;;;4.40;;
72676;SDS011;60755;51.374;10.662;2023-07-22T07:45:15;5.05;;;4.60;;
72676;SDS011;60755;51.374;10.662;2023-07-22T07:47:42;5.05;;;4.57;;
72676;SDS011;60755;51.374;10.662;2023-07-22T07:50:09;4.68;;;4.38;;
72676;SDS011;60755;51.374;10.662;2023-07-22T07:52:36;5.50;;;5.00;;
72676;SDS011;60755;51.374;10.662;2023-07-22T07:55:05;4.50;;;4.20;;
72676;SDS011;60755;51.374;10.662;2023-07-22T07:57:32;4.50;;;4.10;;
72676;SDS011;60755;51.374;10.662;2023-07-22T08:00:01;5.57;;;4.30;;
72676;SDS011;60755;51.374;10.662;2023-07-22T08:02:30;4.40;;;4.00;;
72676;SDS011;60755;51.374;10.662;2023-07-22T08:04:57;6.13;;;4.82;;
72676;SDS011;60755;51.374;10.662;2023-07-22T08:07:24;5.00;;;4.60;;
72676;SDS011;60755;51.374;10.662;2023-07-22T08:09:51;5.45;;;5.05;;
72676;SDS011;60755;51.374;10.662;2023-07-22T08:12:18;5.05;;;4.53;;
72676;SDS011;60755;51.374;10.662;2023-07-22T08:14:45;5.55;;;5.05;;
72676;SDS011;60755;51.374;10.662;2023-07-22T08:17:13;6.05;;;5.25;;
72676;SDS011;60755;51.374;10.662;2023-07-22T08:19:41;6.30;;;5.30;;
72676;SDS011;60755;51.374;10.662;2023-07-22T08:22:07;6.10;;;5.57;;
72676;SDS011;60755;51.374;10.662;2023-07-22T08:24:34;5.78;;;4.95;;
72676;SDS011;60755;51.374;10.662;2023-07-22T08:27:01;5.13;;;4.63;;
72676;SDS011;60755;51.374;10.662;2023-07-22T08:29:29;5.07;;;4.68;;
72676;SDS011;60755;51.374;10.662;2023-07-22T08:31:56;6.53;;;5.57;;
72676;SDS011;60755;51.374;10.662;2023-07-22T08:34:24;5.50;;;5.10;;
72676;SDS011;60755;51.374;10.662;2023-07-22T08:36:51;6.00;;;5.50;;
72676;SDS011;60755;51.374;10.662;2023-07-22T08:39:19;6.13;;;4.95;;
72676;SDS011;60755;51.374;10.662;2023-07-22T08:41:47;8.50;;;4.93;;
72676;SDS011;60755;51.374;10.662;2023-07-22T08:44:17;5.60;;;4.90;;
72676;SDS011;60755;51.374;10.662;2023-07-22T08:46:46;5.63;;;5.13;;
72676;SDS011;60755;51.374;10.662;2023-07-22T08:49:13;5.93;;;5.30;;
72676;SDS011;60755;51.374;10.662;2023-07-22T08:51:43;5.72;;;5.25;;
72676;SDS011;60755;51.374;10.662;2023-07-22T08:54:11;5.43;;;5.03;;
72676;SDS011;60755;51.374;10.662;2023-07-22T08:56:40;5.72;;;5.22;;
72676;SDS011;60755;51.374;10.662;2023-07-22T08:59:08;5.93;;;5.20;;
72676;SDS011;60755;51.374;10.662;2023-07-22T09:01:36;6.72;;;5.35;;
72676;SDS011;60755;51.374;10.662;2023-07-22T09:04:04;6.28;;;5.68;;
72676;SDS011;60755;51.374;10.662;2023-07-22T09:06:32;5.47;;;5.07;;
72676;SDS011;60755;51.374;10.662;2023-07-22T09:09:02;6.05;;;5.55;;
72676;SDS011;60755;51.374;10.662;2023-07-22T09:11:33;5.38;;;4.88;;
72676;SDS011;60755;51.374;10.662;2023-07-22T09:14:01;5.95;;;5.45;;
72676;SDS011;60755;51.374;10.662;2023-07-22T09:16:29;6.97;;;5.75;;
72676;SDS011;60755;51.374;10.662;2023-07-22T09:18:57;7.38;;;5.43;;
72676;SDS011;60755;51.374;10.662;2023-07-22T09:21:24;5.75;;;5.25;;
72676;SDS011;60755;51.374;10.662;2023-07-22T09:23:53;6.38;;;5.75;;
72676;SDS011;60755;51.374;10.662;2023-07-22T09:26:21;6.00;;;5.60;;
72676;SDS011;60755;51.374;10.662;2023-07-22T09:28:49;7.82;;;5.80;;
72676;SDS011;60755;51.374;10.662;2023-07-22T09:31:17;8.23;;;5.60;;
72676;SDS011;60755;51.374;10.662;2023-07-22T09:33:45;7.57;;;6.00;;
72676;SDS011;60755;51.374;10.662;2023-07-22T09:36:12;6.55;;;5.85;;
72676;SDS011;60755;51.374;10.662;2023-07-22T09:38:39;7.60;;;5.85;;
72676;SDS011;60755;51.374;10.662;2023-07-22T09:41:06;6.47;;;5.88;;
72676;SDS011;60755;51.374;10.662;2023-07-22T09:43:38;6.10;;;5.60;;
72676;SDS011;60755;51.374;10.662;2023-07-22T09:46:06;8.13;;;5.93;;
72676;SDS011;60755;51.374;10.662;2023-07-22T09:48:40;6.15;;;5.53;;
72676;SDS011;60755;51.374;10.662;2023-07-22T09:51:11;5.50;;;5.00;;
72676;SDS011;60755;51.374;10.662;2023-07-22T09:53:43;11.52;;;5.68;;
72676;SDS011;60755;51.374;10.662;2023-07-22T09:56:11;6.22;;;5.72;;
72676;SDS011;60755;51.374;10.662;2023-07-22T09:58:39;5.93;;;5.38;;
72676;SDS011;60755;51.374;10.662;2023-07-22T10:01:07;5.60;;;5.10;;
72676;SDS011;60755;51.374;10.662;2023-07-22T10:03:36;5.78;;;5.38;;
72676;SDS011;60755;51.374;10.662;2023-07-22T10:06:04;6.30;;;5.75;;
72676;SDS011;60755;51.374;10.662;2023-07-22T10:08:33;7.53;;;5.45;;
72676;SDS011;60755;51.374;10.662;2023-07-22T10:11:01;6.47;;;5.80;;
72676;SDS011;60755;51.374;10.662;2023-07-22T10:13:32;8.00;;;5.93;;
72676;SDS011;60755;51.374;10.662;2023-07-22T10:16:01;7.88;;;6.13;;
72676;SDS011;60755;51.374;10.662;2023-07-22T10:18:28;9.63;;;6.40;;
72676;SDS011;60755;51.374;10.662;2023-07-22T10:20:57;8.32;;;6.15;;
72676;SDS011;60755;51.374;10.662;2023-07-22T10:23:25;6.85;;;5.78;;
72676;SDS011;60755;51.374;10.662;2023-07-22T10:25:53;6.18;;;5.57;;
72676;SDS011;60755;51.374;10.662;2023-07-22T10:28:21;6.10;;;5.40;;
72676;SDS011;60755;51.374;10.662;2023-07-22T10:30:49;6.00;;;5.40;;
72676;SDS011;60755;51.374;10.662;2023-07-22T10:33:17;4.80;;;4.40;;
72676;SDS011;60755;51.374;10.662;2023-07-22T10:36:01;6.20;;;4.38;;
72676;SDS011;60755;51.374;10.662;2023-07-22T10:38:30;5.45;;;4.85;;
72676;SDS011;60755;51.374;10.662;2023-07-22T10:40:57;5.10;;;4.50;;
72676;SDS011;60755;51.374;10.662;2023-07-22T10:43:25;5.45;;;5.03;;
72676;SDS011;60755;51.374;10.662;2023-07-22T10:45:53;4.60;;;4.30;;
72676;SDS011;60755;51.374;10.662;2023-07-22T10:48:24;7.72;;;5.00;;
72676;SDS011;60755;51.374;10.662;2023-07-22T10:50:53;6.18;;;4.82;;
72676;SDS011;60755;51.374;10.662;2023-07-22T10:53:28;5.82;;;5.25;;
72676;SDS011;60755;51.374;10.662;2023-07-22T10:56:12;5.05;;;4.65;;
72676;SDS011;60755;51.374;10.662;2023-07-22T10:58:56;5.47;;;5.07;;
72676;SDS011;60755;51.374;10.662;2023-07-22T11:01:30;5.15;;;4.68;;
72676;SDS011;60755;51.374;10.662;2023-07-22T11:04:10;5.03;;;4.60;;
72676;SDS011;60755;51.374;10.662;2023-07-22T11:06:39;4.97;;;4.57;;
72676;SDS011;60755;51.374;10.662;2023-07-22T11:12:12;4.53;;;4.13;;
72676;SDS011;60755;51.374;10.662;2023-07-22T11:14:45;4.82;;;4.43;;
72676;SDS011;60755;51.374;10.662;2023-07-22T11:17:13;4.57;;;4.28;;
72676;SDS011;60755;51.374;10.662;2023-07-22T11:19:41;4.97;;;4.00;;
72676;SDS011;60755;51.374;10.662;2023-07-22T11:22:08;4.55;;;4.15;;
72676;SDS011;60755;51.374;10.662;2023-07-22T11:24:36;4.25;;;3.95;;
72676;SDS011;60755;51.374;10.662;2023-07-22T11:27:04;4.82;;;4.40;;
72676;SDS011;60755;51.374;10.662;2023-07-22T11:29:32;4.93;;;4.53;;
72676;SDS011;60755;51.374;10.662;2023-07-22T11:31:59;4.28;;;3.97;;
72676;SDS011;60755;51.374;10.662;2023-07-22T11:34:26;4.50;;;4.20;;
72676;SDS011;60755;51.374;10.662;2023-07-22T11:36:55;6.40;;;4.60;;
72676;SDS011;60755;51.374;10.662;2023-07-22T11:39:24;6.43;;;4.50;;
72676;SDS011;60755;51.374;10.662;2023-07-22T11:41:53;4.88;;;4.25;;
72676;SDS011;60755;51.374;10.662;2023-07-22T11:44:21;5.32;;;4.88;;
72676;SDS011;60755;51.374;10.662;2023-07-22T11:46:55;4.65;;;4.25;;
72676;SDS011;60755;51.374;10.662;2023-07-22T11:49:24;4.28;;;4.07;;
72676;SDS011;60755;51.374;10.662;2023-07-22T11:51:58;5.10;;;4.45;;
72676;SDS011;60755;51.374;10.662;2023-07-22T11:54:26;4.57;;;4.18;;
72676;SDS011;60755;51.374;10.662;2023-07-22T11:56:54;4.32;;;4.03;;
72676;SDS011;60755;51.374;10.662;2023-07-22T11:59:34;6.13;;;3.83;;
72676;SDS011;60755;51.374;10.662;2023-07-22T12:02:03;4.32;;;4.03;;
72676;SDS011;60755;51.374;10.662;2023-07-22T12:04:31;4.15;;;3.95;;
72676;SDS011;60755;51.374;10.662;2023-07-22T12:07:01;7.38;;;4.10;;
72676;SDS011;60755;51.374;10.662;2023-07-22T12:09:30;4.70;;;4.25;;
72676;SDS011;60755;51.374;10.662;2023-07-22T12:11:57;5.00;;;4.50;;
72676;SDS011;60755;51.374;10.662;2023-07-22T12:14:32;4.72;;;4.05;;
72676;SDS011;60755;51.374;10.662;2023-07-22T12:17:01;4.82;;;4.32;;
72676;SDS011;60755;51.374;10.662;2023-07-22T12:19:28;4.43;;;4.07;;
72676;SDS011;60755;51.374;10.662;2023-07-22T12:21:55;4.65;;;4.25;;
72676;SDS011;60755;51.374;10.662;2023-07-22T12:24:24;4.30;;;4.00;;
72676;SDS011;60755;51.374;10.662;2023-07-22T12:26:51;4.32;;;4.00;;
72676;SDS011;60755;51.374;10.662;2023-07-22T12:29:18;4.38;;;4.00;;
72676;SDS011;60755;51.374;10.662;2023-07-22T12:31:45;4.15;;;3.90;;
72676;SDS011;60755;51.374;10.662;2023-07-22T12:34:12;4.30;;;4.00;;
72676;SDS011;60755;51.374;10.662;2023-07-22T12:36:41;4.50;;;4.20;;
72676;SDS011;60755;51.374;10.662;2023-07-22T12:39:08;4.28;;;3.95;;
72676;SDS011;60755;51.374;10.662;2023-07-22T12:41:37;4.40;;;4.10;;
72676;SDS011;60755;51.374;10.662;2023-07-22T12:44:04;4.07;;;3.78;;
72676;SDS011;60755;51.374;10.662;2023-07-22T12:46:31;4.38;;;3.83;;
72676;SDS011;60755;51.374;10.662;2023-07-22T12:48:58;4.00;;;3.70;;
72676;SDS011;60755;51.374;10.662;2023-07-22T12:51:24;4.00;;;3.80;;
72676;SDS011;60755;51.374;10.662;2023-07-22T12:53:51;4.18;;;3.88;;
72676;SDS011;60755;51.374;10.662;2023-07-22T12:56:18;4.13;;;3.85;;
72676;SDS011;60755;51.374;10.662;2023-07-22T12:58:47;4.25;;;3.85;;
72676;SDS011;60755;51.374;10.662;2023-07-22T13:01:14;4.03;;;3.72;;
72676;SDS011;60755;51.374;10.662;2023-07-22T13:03:40;4.97;;;3.90;;
72676;SDS011;60755;51.374;10.662;2023-07-22T13:06:07;3.50;;;3.30;;
72676;SDS011;60755;51.374;10.662;2023-07-22T13:08:35;3.75;;;3.55;;
72676;SDS011;60755;51.374;10.662;2023-07-22T13:11:02;3.95;;;3.70;;
72676;SDS011;60755;51.374;10.662;2023-07-22T13:13:30;3.80;;;3.60;;
72676;SDS011;60755;51.374;10.662;2023-07-22T13:15:58;4.20;;;3.90;;
72676;SDS011;60755;51.374;10.662;2023-07-22T13:18:25;7.38;;;3.75;;
72676;SDS011;60755;51.374;10.662;2023-07-22T13:20:52;4.18;;;3.88;;
72676;SDS011;60755;51.374;10.662;2023-07-22T13:23:22;4.13;;;3.83;;
72676;SDS011;60755;51.374;10.662;2023-07-22T13:25:52;4.05;;;3.50;;
72676;SDS011;60755;51.374;10.662;2023-07-22T13:28:19;4.07;;;3.88;;
72676;SDS011;60755;51.374;10.662;2023-07-22T13:30:46;4.38;;;3.95;;
72676;SDS011;60755;51.374;10.662;2023-07-22T13:33:14;5.53;;;3.72;;
72676;SDS011;60755;51.374;10.662;2023-07-22T13:35:42;4.18;;;3.78;;
72676;SDS011;60755;51.374;10.662;2023-07-22T13:38:09;3.95;;;3.75;;
72676;SDS011;60755;51.374;10.662;2023-07-22T13:40:36;4.15;;;3.75;;
72676;SDS011;60755;51.374;10.662;2023-07-22T13:43:03;4.28;;;3.97;;
72676;SDS011;60755;51.374;10.662;2023-07-22T13:45:30;4.10;;;3.80;;
72676;SDS011;60755;51.374;10.662;2023-07-22T13:47:57;4.35;;;3.75;;
72676;SDS011;60755;51.374;10.662;2023-07-22T13:50:25;3.78;;;3.55;;
72676;SDS011;60755;51.374;10.662;2023-07-22T13:52:52;3.88;;;3.67;;
72676;SDS011;60755;51.374;10.662;2023-07-22T13:55:19;4.10;;;3.70;;
72676;SDS011;60755;51.374;10.662;2023-07-22T13:57:46;3.50;;;3.30;;
72676;SDS011;60755;51.374;10.662;2023-07-22T14:00:13;4.88;;;3.88;;
72676;SDS011;60755;51.374;10.662;2023-07-22T14:02:40;4.00;;;3.70;;
72676;SDS011;60755;51.374;10.662;2023-07-22T14:05:07;9.38;;;3.60;;
72676;SDS011;60755;51.374;10.662;2023-07-22T14:07:37;4.45;;;3.58;;
72676;SDS011;60755;51.374;10.662;2023-07-22T14:10:05;4.10;;;3.80;;
72676;SDS011;60755;51.374;10.662;2023-07-22T14:12:34;5.90;;;3.40;;
72676;SDS011;60755;51.374;10.662;2023-07-22T14:15:01;3.63;;;3.42;;
72676;SDS011;60755;51.374;10.662;2023-07-22T14:17:30;3.80;;;3.50;;
72676;SDS011;60755;51.374;10.662;2023-07-22T14:19:57;3.75;;;3.50;;
72676;SDS011;60755;51.374;10.662;2023-07-22T14:22:24;3.60;;;3.40;;
72676;SDS011;60755;51.374;10.662;2023-07-22T14:24:53;4.00;;;3.70;;
72676;SDS011;60755;51.374;10.662;2023-07-22T14:27:20;4.15;;;3.55;;
72676;SDS011;60755;51.374;10.662;2023-07-22T14:29:46;3.35;;;3.25;;
72676;SDS011;60755;51.374;10.662;2023-07-22T14:32:13;3.78;;;3.58;;
72676;SDS011;60755;51.374;10.662;2023-07-22T14:34:41;3.40;;;3.20;;
72676;SDS011;60755;51.374;10.662;2023-07-22T14:37:08;3.70;;;3.42;;